x

South Santa Rosa Is. Ca (46069) Wave Buoy

11:50 - Sat 30th Apr 2016 All times are PDT. -7 hours from GMT.

  • Sig Wave height 7.9ft
  • Swell Direction
  • Peak Period 11s
  • Average Period 7s
  • Wind
    20mph, 25mph gusts
  • Sea Temp 55°f
  • Luft Temp 54°f
  • Sea Pressure 1011.6mb
  • South Santa Rosa Is. Ca
  • South Santa Rosa Is. Ca

More Historic Weather Station data

Upgrade to MSW Pro to gain access to the past 30 days of data for over 8000 Wavebouys and Weather Stations around the globe.

Join Pro

Comparision Forecast

View Surf forecast
   
Sa 04/30 11:50 8ft 11s 7s 20 25 mph 1011.6mb 55f 54f
10:50 8.5ft 10s 7s 20 25 mph 1011.6mb 55f 54f
9:50 9ft 9s 7s 22 27 mph 1011.5mb 55f 53f
8:50 9ft 10s 7s 25 29 mph 1011.4mb 55f 53f
7:50 10ft 9s 7s 29 34 mph 1011.2mb 55f 53f
5:50 10ft 8s 7s 22 29 mph 1010.8mb 55f 54f
4:50 10ft 9s 7s 25 31 mph 1011mb 55f 55f
3:50 10ft 8s 7s 29 36 mph 1011.1mb 55f 55f
2:50 9ft 7s 7s 25 31 mph 1011.8mb 55f 55f
1:50 9ft 7s 7s 29 36 mph 1012.6mb 55f 55f
12:50 9ft 13s 7s 27 34 mph 1013.2mb 55f 55f
Fr 04/29 11:50 8ft 12s 6s 29 36 mph 1013.6mb 55f 55f
10:50 9ft 14s 7s 31 38 mph 1013.7mb 56f 55f
9:50 9ft 13s 6s 31 38 mph 1013.7mb 56f 55f
8:50 9ft 14s 7s 29 34 mph 1013.9mb 56f 54f
7:50 10ft 14s 7s 31 38 mph 1014mb 56f 55f
6:50 10ft 13s 7s 27 36 mph 1014.8mb 56f 55f
5:50 10ft 13s 7s 31 36 mph 1014.8mb 56f 55f
4:50 9.5ft 13s 7s 27 34 mph 1015.2mb 56f 55f
3:50 10.5ft 14s 8s 25 31 mph 1016.4mb 56f 55f
2:50 10ft 13s 8s 25 29 mph 1017.1mb 56f 55f
1:50 9ft 14s 7s 25 31 mph 1017.5mb 56f 54f
12:50 9ft 14s 7s 22 27 mph 1018mb 56f 54f
11:50 11ft 13s 8s 22 27 mph 1018.3mb 56f 54f
10:50 11ft 14s 8s 25 29 mph 1018mb 56f 54f
9:50 11ft 15s 8s 25 31 mph 1018.1mb 55f 53f
8:50 11ft 14s 7s 25 29 mph 1017.5mb 56f 53f
7:50 11ft 14s 8s 27 34 mph 1016.9mb 56f 53f
6:50 11ft 15s 7s 27 36 mph 1016mb 56f 53f
5:50 11.5ft 15s 7s 29 34 mph 1015.7mb 56f 53f
4:50 12ft 15s 8s 31 36 mph 1014.7mb 56f 53f
3:50 12ft 16s 8s 29 36 mph 1014.7mb 56f 54f
2:50 12ft 16s 8s 29 34 mph 1014.4mb 56f 54f
1:50 11ft 16s 7s 29 36 mph 1014.4mb 56f 54f
12:50 12.5ft 16s 8s 29 36 mph 1014.7mb 56f 54f
Do 04/28 11:50 13ft 10s 8s 27 36 mph 1014.5mb 55f 54f
10:50 12ft 16s 8s 27 34 mph 1015mb 55f 54f
9:50 12ft 11s 7s 29 38 mph 1014.6mb 55f 54f
8:50 13ft 11s 7s 29 38 mph 1013.7mb 55f 55f
7:50 13.5ft 10s 8s 31 38 mph 1012.8mb 55f 55f
6:50 12ft 11s 7s 34 40 mph 1012.3mb 55f 55f
5:50 12ft 11s 7s 34 40 mph 1011.8mb 55f 55f
4:50 11.5ft 11s 7s 34 40 mph 1011.6mb 55f 55f
3:50 10.5ft 10s 7s 27 36 mph 1012.4mb 55f 55f
2:50 11ft 10s 7s 27 36 mph 1013mb 55f 55f
1:50 11ft 10s 7s 27 34 mph 1013mb 55f 55f
12:50 12ft 11s 7s 27 36 mph 1013.4mb 55f 54f
11:50 12ft 10s 7s 25 31 mph 1013.8mb 55f 54f
10:50 12ft 11s 7s 29 36 mph 1012.9mb 55f 54f
9:50 10ft 9s 7s 29 34 mph 1012.8mb 55f 54f
8:50 12ft 10s 7s 31 40 mph 1011.7mb 55f 54f
7:50 12ft 9s 7s 25 31 mph 1012.6mb 55f 54f
6:50 11ft 10s 7s 29 36 mph 1011.8mb 55f 54f
5:50 11ft 9s 7s 29 36 mph 1011.4mb 55f 54f
4:50 10.5ft 9s 7s 31 36 mph 1011.1mb 54f 54f
3:50 12ft 9s 7s 29 36 mph 1010.9mb 54f 54f
2:50 11.5ft 9s 7s 31 40 mph 1010.8mb 54f 54f
1:50 10.5ft 9s 7s 31 38 mph 1011mb 55f 55f
12:50 11ft 8s 6s 31 38 mph 1011.3mb 55f 55f
Mi 04/27 11:50 11ft 8s 7s 34 43 mph 1011.1mb 55f 54f
10:50 10ft 7s 6s 36 43 mph 1011.3mb 55f 55f
9:50 9ft 7s 6s 31 38 mph 1011.6mb 55f 55f
8:50 9ft 7s 6s 31 40 mph 1011.3mb 55f 55f
7:50 7.5ft 6s 5s 29 36 mph 1011.1mb 55f 55f
6:50 7.5ft 6s 6s 31 36 mph 1011.1mb 55f 56f
5:50 6.5ft 7s 6s 27 34 mph 1011.3mb 55f 56f
4:50 7ft 11s 6s 27 34 mph 1011.6mb 56f 57f
3:50 7ft 8s 6s 22 27 mph 1012.3mb 56f 57f
2:50 7ft 11s 6s 22 27 mph 1012.8mb 55f 56f
1:50 8ft 8s 6s 25 31 mph 1013.2mb 55f 56f
12:50 9ft 7s 6s 27 31 mph 1013.7mb 55f 56f
11:50 10ft 7s 7s 25 31 mph 1014.3mb 55f 55f
10:50 9.5ft 8s 6s 25 31 mph 1014.3mb 55f 55f
9:50 10ft 9s 7s 31 38 mph 1013.8mb 55f 55f
8:50 11ft 9s 7s 31 40 mph 1013.7mb 55f 54f
7:50 10ft 8s 7s 31 38 mph 1013.8mb 55f 54f
6:50 11ft 8s 7s 34 43 mph 1013.2mb 55f 54f
5:50 11ft 8s 7s 31 40 mph 1013.2mb 55f 54f
4:50 10ft 11s 6s 31 40 mph 1012.9mb 55f 54f
3:50 11.5ft 9s 7s 31 40 mph 1013.2mb 55f 54f
2:50 11ft 9s 7s 31 40 mph 1013.5mb 55f 54f
1:50 11.5ft 9s 7s 34 43 mph 1013.7mb 55f 54f
12:50 11ft 8s 7s 31 40 mph 1014.6mb 55f 54f
Di 04/26 11:50 11ft 8s 7s 25 34 mph 1015.6mb 55f 54f
10:50 10ft 8s 7s 29 34 mph 1015.9mb 55f 55f
9:50 10.5ft 13s 7s 29 36 mph 1016mb 55f 54f
8:50 10.5ft 10s 7s 27 31 mph 1015.7mb 55f 54f